Tecumseh, Kansas
Current Conditions -  °F | °C
As of 6:53 AM on Monday 22 Dec 2014 (Local Time) from KFOE Reporting Station
Haze Haze  
Wind Chill: 39°   Ceiling: 400
Heat Index: 45°   Visibility: 4mi
Dew Point: 42°   Wind: 12mph
Humidity: 90%   Direction: 160°SSE
Pressure: 29.57"   Gusts: NA
Location:  39.05°N, 95.58°W
Report Text: KFOE 221253Z 16010KT 4SM BR OVC004 07/06 A2957 RMK AO2 RAE09 SLP015 P0000 T00720056
Loading
Personal Weather Stations






























Interactive Weather Map New forecast layout! Learn more

10-Day Weather Forecast

Advertisements
Track Severe Weather on mobile